sensor_id;sensor_type;location;lat;lon;timestamp;P1;durP1;ratioP1;P2;durP2;ratioP2
22780;SDS011;11557;50.884;4.322;2024-01-25T00:02:15;55.75;;;9.50;;
22780;SDS011;11557;50.884;4.322;2024-01-25T00:04:41;48.53;;;8.52;;
22780;SDS011;11557;50.884;4.322;2024-01-25T00:07:10;62.28;;;9.30;;
22780;SDS011;11557;50.884;4.322;2024-01-25T00:09:35;61.55;;;8.88;;
22780;SDS011;11557;50.884;4.322;2024-01-25T00:12:01;53.00;;;8.23;;
22780;SDS011;11557;50.884;4.322;2024-01-25T00:14:26;48.45;;;8.85;;
22780;SDS011;11557;50.884;4.322;2024-01-25T00:16:52;55.72;;;8.20;;
22780;SDS011;11557;50.884;4.322;2024-01-25T00:19:18;62.72;;;9.27;;
22780;SDS011;11557;50.884;4.322;2024-01-25T00:21:43;69.50;;;10.05;;
22780;SDS011;11557;50.884;4.322;2024-01-25T00:24:12;62.42;;;9.15;;
22780;SDS011;11557;50.884;4.322;2024-01-25T00:26:38;60.55;;;8.93;;
22780;SDS011;11557;50.884;4.322;2024-01-25T00:29:04;66.72;;;9.23;;
22780;SDS011;11557;50.884;4.322;2024-01-25T00:31:30;63.15;;;9.80;;
22780;SDS011;11557;50.884;4.322;2024-01-25T00:33:57;66.15;;;9.38;;
22780;SDS011;11557;50.884;4.322;2024-01-25T00:36:23;57.22;;;8.90;;
22780;SDS011;11557;50.884;4.322;2024-01-25T00:38:49;61.15;;;9.50;;
22780;SDS011;11557;50.884;4.322;2024-01-25T00:41:17;72.40;;;9.77;;
22780;SDS011;11557;50.884;4.322;2024-01-25T00:43:44;47.20;;;8.52;;
22780;SDS011;11557;50.884;4.322;2024-01-25T00:46:10;59.53;;;8.73;;
22780;SDS011;11557;50.884;4.322;2024-01-25T00:48:37;49.75;;;7.80;;
22780;SDS011;11557;50.884;4.322;2024-01-25T00:51:03;66.50;;;9.77;;
22780;SDS011;11557;50.884;4.322;2024-01-25T00:53:38;49.55;;;8.27;;
22780;SDS011;11557;50.884;4.322;2024-01-25T00:56:04;58.40;;;8.57;;
22780;SDS011;11557;50.884;4.322;2024-01-25T00:58:30;62.35;;;9.10;;
22780;SDS011;11557;50.884;4.322;2024-01-25T01:00:57;47.78;;;8.30;;
22780;SDS011;11557;50.884;4.322;2024-01-25T01:03:23;39.65;;;7.75;;
22780;SDS011;11557;50.884;4.322;2024-01-25T01:05:49;54.28;;;8.65;;
22780;SDS011;11557;50.884;4.322;2024-01-25T01:08:15;57.97;;;8.10;;
22780;SDS011;11557;50.884;4.322;2024-01-25T01:10:40;52.03;;;9.18;;
22780;SDS011;11557;50.884;4.322;2024-01-25T01:13:06;56.75;;;9.38;;
22780;SDS011;11557;50.884;4.322;2024-01-25T01:15:32;67.85;;;8.88;;
22780;SDS011;11557;50.884;4.322;2024-01-25T01:17:58;58.42;;;9.25;;
22780;SDS011;11557;50.884;4.322;2024-01-25T01:20:23;56.28;;;8.93;;
22780;SDS011;11557;50.884;4.322;2024-01-25T01:22:49;50.38;;;8.68;;
22780;SDS011;11557;50.884;4.322;2024-01-25T01:25:16;60.47;;;9.00;;
22780;SDS011;11557;50.884;4.322;2024-01-25T01:27:42;68.35;;;9.27;;
22780;SDS011;11557;50.884;4.322;2024-01-25T01:30:08;57.10;;;9.13;;
22780;SDS011;11557;50.884;4.322;2024-01-25T01:32:34;47.83;;;8.27;;
22780;SDS011;11557;50.884;4.322;2024-01-25T01:34:59;65.28;;;9.07;;
22780;SDS011;11557;50.884;4.322;2024-01-25T01:37:25;38.83;;;7.53;;
22780;SDS011;11557;50.884;4.322;2024-01-25T01:39:51;56.60;;;9.13;;
22780;SDS011;11557;50.884;4.322;2024-01-25T01:42:17;56.60;;;8.50;;
22780;SDS011;11557;50.884;4.322;2024-01-25T01:44:43;67.55;;;8.20;;
22780;SDS011;11557;50.884;4.322;2024-01-25T01:47:08;61.03;;;9.23;;
22780;SDS011;11557;50.884;4.322;2024-01-25T01:49:34;49.13;;;8.23;;
22780;SDS011;11557;50.884;4.322;2024-01-25T01:52:00;54.35;;;8.60;;
22780;SDS011;11557;50.884;4.322;2024-01-25T01:54:27;46.75;;;7.68;;
22780;SDS011;11557;50.884;4.322;2024-01-25T01:56:52;51.40;;;8.43;;
22780;SDS011;11557;50.884;4.322;2024-01-25T01:59:19;55.83;;;9.57;;
22780;SDS011;11557;50.884;4.322;2024-01-25T02:01:45;52.55;;;7.85;;
22780;SDS011;11557;50.884;4.322;2024-01-25T02:04:11;50.53;;;8.52;;
22780;SDS011;11557;50.884;4.322;2024-01-25T02:06:37;44.33;;;7.72;;
22780;SDS011;11557;50.884;4.322;2024-01-25T02:09:02;53.55;;;7.60;;
22780;SDS011;11557;50.884;4.322;2024-01-25T02:11:30;42.58;;;7.03;;
22780;SDS011;11557;50.884;4.322;2024-01-25T02:13:55;54.90;;;8.15;;
22780;SDS011;11557;50.884;4.322;2024-01-25T02:16:21;44.25;;;7.78;;
22780;SDS011;11557;50.884;4.322;2024-01-25T02:18:47;45.95;;;7.18;;
22780;SDS011;11557;50.884;4.322;2024-01-25T02:21:13;33.35;;;7.20;;
22780;SDS011;11557;50.884;4.322;2024-01-25T02:23:38;49.65;;;6.90;;
22780;SDS011;11557;50.884;4.322;2024-01-25T02:26:04;39.20;;;8.23;;
22780;SDS011;11557;50.884;4.322;2024-01-25T02:28:30;57.88;;;8.07;;
22780;SDS011;11557;50.884;4.322;2024-01-25T02:30:55;47.53;;;8.05;;
22780;SDS011;11557;50.884;4.322;2024-01-25T02:33:22;35.70;;;6.68;;
22780;SDS011;11557;50.884;4.322;2024-01-25T02:35:47;47.35;;;7.55;;
22780;SDS011;11557;50.884;4.322;2024-01-25T02:38:13;42.88;;;6.78;;
22780;SDS011;11557;50.884;4.322;2024-01-25T02:40:39;51.50;;;8.10;;
22780;SDS011;11557;50.884;4.322;2024-01-25T02:43:04;40.30;;;7.25;;
22780;SDS011;11557;50.884;4.322;2024-01-25T02:45:30;63.30;;;7.68;;
22780;SDS011;11557;50.884;4.322;2024-01-25T02:47:56;54.15;;;7.72;;
22780;SDS011;11557;50.884;4.322;2024-01-25T02:50:21;44.20;;;8.35;;
22780;SDS011;11557;50.884;4.322;2024-01-25T02:52:47;46.90;;;7.40;;
22780;SDS011;11557;50.884;4.322;2024-01-25T02:55:12;46.67;;;8.63;;
22780;SDS011;11557;50.884;4.322;2024-01-25T02:57:38;36.33;;;6.63;;
22780;SDS011;11557;50.884;4.322;2024-01-25T03:00:04;43.25;;;7.10;;
22780;SDS011;11557;50.884;4.322;2024-01-25T03:02:30;35.25;;;6.47;;
22780;SDS011;11557;50.884;4.322;2024-01-25T03:04:56;46.80;;;7.78;;
22780;SDS011;11557;50.884;4.322;2024-01-25T03:07:22;41.47;;;6.72;;
22780;SDS011;11557;50.884;4.322;2024-01-25T03:09:47;49.95;;;7.50;;
22780;SDS011;11557;50.884;4.322;2024-01-25T03:12:13;49.13;;;7.60;;
22780;SDS011;11557;50.884;4.322;2024-01-25T03:14:39;36.05;;;6.53;;
22780;SDS011;11557;50.884;4.322;2024-01-25T03:17:05;45.25;;;6.85;;
22780;SDS011;11557;50.884;4.322;2024-01-25T03:19:30;45.50;;;7.45;;
22780;SDS011;11557;50.884;4.322;2024-01-25T03:21:56;48.83;;;7.45;;
22780;SDS011;11557;50.884;4.322;2024-01-25T03:24:22;40.08;;;7.53;;
22780;SDS011;11557;50.884;4.322;2024-01-25T03:26:47;43.33;;;7.03;;
22780;SDS011;11557;50.884;4.322;2024-01-25T03:29:13;43.08;;;7.43;;
22780;SDS011;11557;50.884;4.322;2024-01-25T03:31:39;34.92;;;6.65;;
22780;SDS011;11557;50.884;4.322;2024-01-25T03:34:05;44.25;;;8.15;;
22780;SDS011;11557;50.884;4.322;2024-01-25T03:36:30;49.85;;;8.30;;
22780;SDS011;11557;50.884;4.322;2024-01-25T03:38:56;50.95;;;8.82;;
22780;SDS011;11557;50.884;4.322;2024-01-25T03:41:22;42.00;;;6.47;;
22780;SDS011;11557;50.884;4.322;2024-01-25T03:43:48;44.78;;;7.18;;
22780;SDS011;11557;50.884;4.322;2024-01-25T03:46:14;47.40;;;8.45;;
22780;SDS011;11557;50.884;4.322;2024-01-25T03:48:40;35.08;;;7.13;;
22780;SDS011;11557;50.884;4.322;2024-01-25T03:51:06;55.55;;;7.72;;
22780;SDS011;11557;50.884;4.322;2024-01-25T03:53:31;48.40;;;7.22;;
22780;SDS011;11557;50.884;4.322;2024-01-25T03:55:58;49.80;;;7.88;;
22780;SDS011;11557;50.884;4.322;2024-01-25T03:58:23;47.17;;;7.32;;
22780;SDS011;11557;50.884;4.322;2024-01-25T04:00:49;41.47;;;7.63;;
22780;SDS011;11557;50.884;4.322;2024-01-25T04:03:15;46.88;;;7.85;;
22780;SDS011;11557;50.884;4.322;2024-01-25T04:05:41;36.35;;;6.70;;
22780;SDS011;11557;50.884;4.322;2024-01-25T04:08:07;31.88;;;7.05;;
22780;SDS011;11557;50.884;4.322;2024-01-25T04:10:32;37.38;;;6.80;;
22780;SDS011;11557;50.884;4.322;2024-01-25T04:12:58;39.08;;;6.50;;
22780;SDS011;11557;50.884;4.322;2024-01-25T04:15:25;35.30;;;6.65;;
22780;SDS011;11557;50.884;4.322;2024-01-25T04:17:51;39.50;;;6.80;;
22780;SDS011;11557;50.884;4.322;2024-01-25T04:20:18;42.42;;;6.43;;
22780;SDS011;11557;50.884;4.322;2024-01-25T04:22:44;29.98;;;6.32;;
22780;SDS011;11557;50.884;4.322;2024-01-25T04:25:10;40.50;;;7.68;;
22780;SDS011;11557;50.884;4.322;2024-01-25T04:27:37;32.58;;;6.63;;
22780;SDS011;11557;50.884;4.322;2024-01-25T04:30:04;28.75;;;6.85;;
22780;SDS011;11557;50.884;4.322;2024-01-25T04:32:30;28.75;;;7.13;;
22780;SDS011;11557;50.884;4.322;2024-01-25T04:34:56;40.22;;;7.60;;
22780;SDS011;11557;50.884;4.322;2024-01-25T04:37:21;36.08;;;7.63;;
22780;SDS011;11557;50.884;4.322;2024-01-25T04:39:47;33.75;;;7.28;;
22780;SDS011;11557;50.884;4.322;2024-01-25T04:42:13;50.28;;;7.93;;
22780;SDS011;11557;50.884;4.322;2024-01-25T04:44:39;33.40;;;6.88;;
22780;SDS011;11557;50.884;4.322;2024-01-25T04:47:04;43.22;;;7.53;;
22780;SDS011;11557;50.884;4.322;2024-01-25T04:49:30;46.38;;;7.85;;
22780;SDS011;11557;50.884;4.322;2024-01-25T04:51:56;39.88;;;6.90;;
22780;SDS011;11557;50.884;4.322;2024-01-25T04:54:21;36.08;;;6.45;;
22780;SDS011;11557;50.884;4.322;2024-01-25T04:56:47;42.50;;;6.70;;
22780;SDS011;11557;50.884;4.322;2024-01-25T04:59:12;31.75;;;6.50;;
22780;SDS011;11557;50.884;4.322;2024-01-25T05:01:38;36.30;;;7.75;;
22780;SDS011;11557;50.884;4.322;2024-01-25T05:04:04;42.60;;;7.57;;
22780;SDS011;11557;50.884;4.322;2024-01-25T05:06:30;45.90;;;9.90;;
22780;SDS011;11557;50.884;4.322;2024-01-25T05:08:56;37.83;;;8.35;;
22780;SDS011;11557;50.884;4.322;2024-01-25T05:11:21;43.53;;;7.75;;
22780;SDS011;11557;50.884;4.322;2024-01-25T05:13:47;34.10;;;7.13;;
22780;SDS011;11557;50.884;4.322;2024-01-25T05:16:13;47.83;;;8.75;;
22780;SDS011;11557;50.884;4.322;2024-01-25T05:18:39;40.33;;;8.27;;
22780;SDS011;11557;50.884;4.322;2024-01-25T05:21:04;40.58;;;9.93;;
22780;SDS011;11557;50.884;4.322;2024-01-25T05:23:30;49.22;;;9.52;;
22780;SDS011;11557;50.884;4.322;2024-01-25T05:25:55;51.13;;;13.73;;
22780;SDS011;11557;50.884;4.322;2024-01-25T05:28:21;48.15;;;15.57;;
22780;SDS011;11557;50.884;4.322;2024-01-25T05:30:49;42.33;;;14.68;;
22780;SDS011;11557;50.884;4.322;2024-01-25T05:33:15;47.58;;;12.88;;
22780;SDS011;11557;50.884;4.322;2024-01-25T05:35:41;35.53;;;10.20;;
22780;SDS011;11557;50.884;4.322;2024-01-25T05:38:06;43.50;;;9.88;;
22780;SDS011;11557;50.884;4.322;2024-01-25T05:40:32;43.35;;;9.40;;
22780;SDS011;11557;50.884;4.322;2024-01-25T05:42:58;44.85;;;9.35;;
22780;SDS011;11557;50.884;4.322;2024-01-25T05:45:24;54.42;;;9.10;;
22780;SDS011;11557;50.884;4.322;2024-01-25T05:47:51;46.20;;;9.05;;
22780;SDS011;11557;50.884;4.322;2024-01-25T05:50:17;39.38;;;8.45;;
22780;SDS011;11557;50.884;4.322;2024-01-25T05:52:43;46.38;;;7.95;;
22780;SDS011;11557;50.884;4.322;2024-01-25T05:55:08;41.33;;;8.35;;
22780;SDS011;11557;50.884;4.322;2024-01-25T05:57:37;42.63;;;8.20;;
22780;SDS011;11557;50.884;4.322;2024-01-25T06:00:03;40.75;;;8.70;;
22780;SDS011;11557;50.884;4.322;2024-01-25T06:02:33;49.13;;;8.75;;
22780;SDS011;11557;50.884;4.322;2024-01-25T06:04:58;53.45;;;8.60;;
22780;SDS011;11557;50.884;4.322;2024-01-25T06:07:25;62.47;;;9.10;;
22780;SDS011;11557;50.884;4.322;2024-01-25T06:09:51;48.42;;;8.50;;
22780;SDS011;11557;50.884;4.322;2024-01-25T06:12:17;44.83;;;8.55;;
22780;SDS011;11557;50.884;4.322;2024-01-25T06:14:43;59.67;;;8.93;;
22780;SDS011;11557;50.884;4.322;2024-01-25T06:17:08;68.70;;;11.07;;
22780;SDS011;11557;50.884;4.322;2024-01-25T06:19:34;57.63;;;11.60;;
22780;SDS011;11557;50.884;4.322;2024-01-25T06:22:00;53.10;;;9.32;;
22780;SDS011;11557;50.884;4.322;2024-01-25T06:24:25;65.05;;;10.50;;
22780;SDS011;11557;50.884;4.322;2024-01-25T06:26:54;75.32;;;10.50;;
22780;SDS011;11557;50.884;4.322;2024-01-25T06:29:20;61.95;;;9.35;;
22780;SDS011;11557;50.884;4.322;2024-01-25T06:31:46;56.75;;;10.00;;
22780;SDS011;11557;50.884;4.322;2024-01-25T06:34:11;67.22;;;11.57;;
22780;SDS011;11557;50.884;4.322;2024-01-25T06:36:37;65.97;;;10.05;;
22780;SDS011;11557;50.884;4.322;2024-01-25T06:39:03;67.30;;;10.93;;
22780;SDS011;11557;50.884;4.322;2024-01-25T06:41:29;92.97;;;12.68;;
22780;SDS011;11557;50.884;4.322;2024-01-25T06:43:55;79.18;;;12.80;;
22780;SDS011;11557;50.884;4.322;2024-01-25T06:46:21;85.40;;;12.70;;
22780;SDS011;11557;50.884;4.322;2024-01-25T06:48:46;70.43;;;12.57;;
22780;SDS011;11557;50.884;4.322;2024-01-25T06:51:12;63.72;;;12.98;;
22780;SDS011;11557;50.884;4.322;2024-01-25T06:53:39;61.03;;;12.32;;
22780;SDS011;11557;50.884;4.322;2024-01-25T06:56:05;82.70;;;12.38;;
22780;SDS011;11557;50.884;4.322;2024-01-25T06:58:31;70.25;;;11.18;;
22780;SDS011;11557;50.884;4.322;2024-01-25T07:00:57;72.53;;;12.90;;
22780;SDS011;11557;50.884;4.322;2024-01-25T07:03:24;58.10;;;12.75;;
22780;SDS011;11557;50.884;4.322;2024-01-25T07:05:49;82.55;;;14.05;;
22780;SDS011;11557;50.884;4.322;2024-01-25T07:08:15;69.45;;;12.80;;
22780;SDS011;11557;50.884;4.322;2024-01-25T07:10:41;85.07;;;13.18;;
22780;SDS011;11557;50.884;4.322;2024-01-25T07:13:07;72.82;;;12.20;;
22780;SDS011;11557;50.884;4.322;2024-01-25T07:15:33;72.85;;;12.35;;
22780;SDS011;11557;50.884;4.322;2024-01-25T07:17:59;65.20;;;13.00;;
22780;SDS011;11557;50.884;4.322;2024-01-25T07:20:25;57.85;;;12.55;;
22780;SDS011;11557;50.884;4.322;2024-01-25T07:22:50;80.50;;;13.50;;
22780;SDS011;11557;50.884;4.322;2024-01-25T07:25:16;102.68;;;13.65;;
22780;SDS011;11557;50.884;4.322;2024-01-25T07:27:45;68.07;;;12.65;;
22780;SDS011;11557;50.884;4.322;2024-01-25T07:30:12;60.72;;;13.48;;
22780;SDS011;11557;50.884;4.322;2024-01-25T07:32:38;58.80;;;13.75;;
22780;SDS011;11557;50.884;4.322;2024-01-25T07:35:07;67.57;;;12.57;;
22780;SDS011;11557;50.884;4.322;2024-01-25T07:37:34;71.60;;;13.38;;
22780;SDS011;11557;50.884;4.322;2024-01-25T07:40:00;64.90;;;13.07;;
22780;SDS011;11557;50.884;4.322;2024-01-25T07:42:28;52.85;;;14.10;;
22780;SDS011;11557;50.884;4.322;2024-01-25T07:44:54;81.57;;;13.63;;
22780;SDS011;11557;50.884;4.322;2024-01-25T07:47:19;131.98;;;16.23;;
22780;SDS011;11557;50.884;4.322;2024-01-25T07:49:45;119.50;;;16.17;;
22780;SDS011;11557;50.884;4.322;2024-01-25T07:52:11;97.13;;;14.95;;
22780;SDS011;11557;50.884;4.322;2024-01-25T07:54:37;73.95;;;16.17;;
22780;SDS011;11557;50.884;4.322;2024-01-25T07:57:02;82.32;;;19.75;;
22780;SDS011;11557;50.884;4.322;2024-01-25T07:59:28;91.55;;;21.48;;
22780;SDS011;11557;50.884;4.322;2024-01-25T08:01:54;107.60;;;19.40;;
22780;SDS011;11557;50.884;4.322;2024-01-25T08:04:20;123.50;;;16.88;;
22780;SDS011;11557;50.884;4.322;2024-01-25T08:06:45;71.63;;;16.20;;
22780;SDS011;11557;50.884;4.322;2024-01-25T08:09:11;99.97;;;16.08;;
22780;SDS011;11557;50.884;4.322;2024-01-25T08:11:37;90.30;;;16.48;;
22780;SDS011;11557;50.884;4.322;2024-01-25T08:14:03;114.30;;;16.40;;
22780;SDS011;11557;50.884;4.322;2024-01-25T08:16:28;111.95;;;16.65;;
22780;SDS011;11557;50.884;4.322;2024-01-25T08:18:54;109.28;;;19.88;;
22780;SDS011;11557;50.884;4.322;2024-01-25T08:21:20;99.57;;;20.70;;
22780;SDS011;11557;50.884;4.322;2024-01-25T08:23:46;68.45;;;15.82;;
22780;SDS011;11557;50.884;4.322;2024-01-25T08:26:12;92.28;;;16.70;;
22780;SDS011;11557;50.884;4.322;2024-01-25T08:28:41;69.45;;;15.55;;
22780;SDS011;11557;50.884;4.322;2024-01-25T08:31:10;80.78;;;17.52;;
22780;SDS011;11557;50.884;4.322;2024-01-25T08:33:38;82.88;;;18.13;;
22780;SDS011;11557;50.884;4.322;2024-01-25T08:36:07;63.05;;;16.95;;
22780;SDS011;11557;50.884;4.322;2024-01-25T08:38:32;46.50;;;14.80;;
22780;SDS011;11557;50.884;4.322;2024-01-25T08:40:58;63.63;;;15.90;;
22780;SDS011;11557;50.884;4.322;2024-01-25T08:43:24;63.00;;;17.25;;
22780;SDS011;11557;50.884;4.322;2024-01-25T08:45:49;75.55;;;16.13;;
22780;SDS011;11557;50.884;4.322;2024-01-25T08:48:15;80.55;;;17.05;;
22780;SDS011;11557;50.884;4.322;2024-01-25T08:50:41;57.30;;;16.65;;
22780;SDS011;11557;50.884;4.322;2024-01-25T08:53:06;55.58;;;16.63;;
22780;SDS011;11557;50.884;4.322;2024-01-25T08:55:32;61.25;;;16.80;;
22780;SDS011;11557;50.884;4.322;2024-01-25T08:57:57;59.72;;;15.88;;
22780;SDS011;11557;50.884;4.322;2024-01-25T09:00:23;59.72;;;16.75;;
22780;SDS011;11557;50.884;4.322;2024-01-25T09:02:48;56.28;;;13.68;;
22780;SDS011;11557;50.884;4.322;2024-01-25T09:05:14;48.35;;;14.70;;
22780;SDS011;11557;50.884;4.322;2024-01-25T09:07:40;57.97;;;14.90;;
22780;SDS011;11557;50.884;4.322;2024-01-25T09:10:07;54.42;;;17.25;;
22780;SDS011;11557;50.884;4.322;2024-01-25T09:12:34;70.55;;;15.95;;
22780;SDS011;11557;50.884;4.322;2024-01-25T09:15:00;57.08;;;14.38;;
22780;SDS011;11557;50.884;4.322;2024-01-25T09:17:26;58.15;;;14.48;;
22780;SDS011;11557;50.884;4.322;2024-01-25T09:19:51;65.38;;;16.05;;
22780;SDS011;11557;50.884;4.322;2024-01-25T09:22:17;58.92;;;15.48;;
22780;SDS011;11557;50.884;4.322;2024-01-25T09:24:47;48.58;;;15.02;;
22780;SDS011;11557;50.884;4.322;2024-01-25T09:27:13;59.15;;;16.40;;
22780;SDS011;11557;50.884;4.322;2024-01-25T09:29:39;54.80;;;15.57;;
22780;SDS011;11557;50.884;4.322;2024-01-25T09:32:06;70.05;;;17.30;;
22780;SDS011;11557;50.884;4.322;2024-01-25T09:34:34;61.45;;;17.65;;
22780;SDS011;11557;50.884;4.322;2024-01-25T09:36:59;64.97;;;17.38;;
22780;SDS011;11557;50.884;4.322;2024-01-25T09:39:25;69.32;;;18.00;;
22780;SDS011;11557;50.884;4.322;2024-01-25T09:41:51;81.03;;;19.40;;
22780;SDS011;11557;50.884;4.322;2024-01-25T09:44:16;60.13;;;18.95;;
22780;SDS011;11557;50.884;4.322;2024-01-25T09:46:42;61.97;;;19.63;;
22780;SDS011;11557;50.884;4.322;2024-01-25T09:49:10;58.67;;;18.65;;
22780;SDS011;11557;50.884;4.322;2024-01-25T09:51:37;57.95;;;18.42;;
22780;SDS011;11557;50.884;4.322;2024-01-25T09:54:04;60.55;;;17.55;;
22780;SDS011;11557;50.884;4.322;2024-01-25T09:56:31;67.93;;;19.80;;
22780;SDS011;11557;50.884;4.322;2024-01-25T09:58:58;71.25;;;19.65;;
22780;SDS011;11557;50.884;4.322;2024-01-25T10:01:25;62.85;;;19.92;;
22780;SDS011;11557;50.884;4.322;2024-01-25T10:03:51;65.05;;;22.02;;
22780;SDS011;11557;50.884;4.322;2024-01-25T10:06:17;58.10;;;21.75;;
22780;SDS011;11557;50.884;4.322;2024-01-25T10:08:43;72.00;;;21.42;;
22780;SDS011;11557;50.884;4.322;2024-01-25T10:11:09;81.15;;;22.75;;
22780;SDS011;11557;50.884;4.322;2024-01-25T10:16:07;75.00;;;25.17;;
22780;SDS011;11557;50.884;4.322;2024-01-25T10:18:35;77.05;;;24.65;;
22780;SDS011;11557;50.884;4.322;2024-01-25T10:21:01;84.60;;;27.20;;
22780;SDS011;11557;50.884;4.322;2024-01-25T10:23:28;94.50;;;27.50;;
22780;SDS011;11557;50.884;4.322;2024-01-25T10:25:55;75.50;;;25.20;;
22780;SDS011;11557;50.884;4.322;2024-01-25T10:28:21;83.53;;;25.77;;
22780;SDS011;11557;50.884;4.322;2024-01-25T10:30:49;63.25;;;23.63;;
22780;SDS011;11557;50.884;4.322;2024-01-25T10:33:16;77.50;;;25.70;;
22780;SDS011;11557;50.884;4.322;2024-01-25T10:35:42;72.75;;;26.63;;
22780;SDS011;11557;50.884;4.322;2024-01-25T10:38:15;83.30;;;27.08;;
22780;SDS011;11557;50.884;4.322;2024-01-25T10:40:42;88.07;;;25.15;;
22780;SDS011;11557;50.884;4.322;2024-01-25T10:43:09;92.22;;;25.67;;
22780;SDS011;11557;50.884;4.322;2024-01-25T10:45:34;80.30;;;24.88;;
22780;SDS011;11557;50.884;4.322;2024-01-25T10:48:00;81.45;;;24.52;;
22780;SDS011;11557;50.884;4.322;2024-01-25T10:50:26;67.80;;;22.23;;
22780;SDS011;11557;50.884;4.322;2024-01-25T10:52:52;84.45;;;23.33;;
22780;SDS011;11557;50.884;4.322;2024-01-25T10:55:18;66.57;;;22.75;;
22780;SDS011;11557;50.884;4.322;2024-01-25T10:57:45;81.50;;;23.80;;
22780;SDS011;11557;50.884;4.322;2024-01-25T11:00:12;77.25;;;23.88;;
22780;SDS011;11557;50.884;4.322;2024-01-25T11:02:40;87.28;;;26.00;;
22780;SDS011;11557;50.884;4.322;2024-01-25T11:05:12;76.40;;;23.95;;
22780;SDS011;11557;50.884;4.322;2024-01-25T11:07:45;68.72;;;22.77;;
22780;SDS011;11557;50.884;4.322;2024-01-25T11:10:16;65.20;;;22.38;;
22780;SDS011;11557;50.884;4.322;2024-01-25T11:12:46;57.35;;;21.60;;
22780;SDS011;11557;50.884;4.322;2024-01-25T11:15:17;71.05;;;23.48;;
22780;SDS011;11557;50.884;4.322;2024-01-25T11:18:02;66.60;;;21.13;;
22780;SDS011;11557;50.884;4.322;2024-01-25T11:20:31;56.67;;;20.20;;
22780;SDS011;11557;50.884;4.322;2024-01-25T11:22:59;57.42;;;21.42;;
22780;SDS011;11557;50.884;4.322;2024-01-25T11:25:33;59.97;;;19.05;;
22780;SDS011;11557;50.884;4.322;2024-01-25T11:28:00;55.88;;;19.60;;
22780;SDS011;11557;50.884;4.322;2024-01-25T11:30:28;56.35;;;18.73;;
22780;SDS011;11557;50.884;4.322;2024-01-25T11:32:55;52.70;;;19.02;;
22780;SDS011;11557;50.884;4.322;2024-01-25T11:35:21;50.35;;;18.05;;
22780;SDS011;11557;50.884;4.322;2024-01-25T11:37:47;49.25;;;17.27;;
22780;SDS011;11557;50.884;4.322;2024-01-25T11:40:14;53.35;;;18.67;;
22780;SDS011;11557;50.884;4.322;2024-01-25T11:42:41;60.38;;;18.80;;
22780;SDS011;11557;50.884;4.322;2024-01-25T11:45:11;51.80;;;17.90;;
22780;SDS011;11557;50.884;4.322;2024-01-25T11:47:38;42.78;;;16.65;;
22780;SDS011;11557;50.884;4.322;2024-01-25T11:50:04;57.75;;;17.17;;
22780;SDS011;11557;50.884;4.322;2024-01-25T11:52:32;49.45;;;15.43;;
22780;SDS011;11557;50.884;4.322;2024-01-25T11:54:59;44.45;;;15.75;;
22780;SDS011;11557;50.884;4.322;2024-01-25T11:57:32;44.45;;;16.52;;
22780;SDS011;11557;50.884;4.322;2024-01-25T12:02:31;51.28;;;16.05;;
22780;SDS011;11557;50.884;4.322;2024-01-25T12:04:57;45.45;;;15.77;;
22780;SDS011;11557;50.884;4.322;2024-01-25T12:07:23;48.65;;;15.82;;
22780;SDS011;11557;50.884;4.322;2024-01-25T12:10:04;47.33;;;16.23;;
22780;SDS011;11557;50.884;4.322;2024-01-25T12:12:35;36.97;;;16.20;;
22780;SDS011;11557;50.884;4.322;2024-01-25T12:15:04;39.80;;;13.85;;
22780;SDS011;11557;50.884;4.322;2024-01-25T12:17:32;41.20;;;15.77;;
22780;SDS011;11557;50.884;4.322;2024-01-25T12:20:01;39.03;;;14.25;;
22780;SDS011;11557;50.884;4.322;2024-01-25T12:22:27;42.65;;;15.05;;
22780;SDS011;11557;50.884;4.322;2024-01-25T12:24:55;40.63;;;12.32;;
22780;SDS011;11557;50.884;4.322;2024-01-25T12:27:24;40.97;;;11.90;;
22780;SDS011;11557;50.884;4.322;2024-01-25T12:29:51;39.45;;;10.93;;
22780;SDS011;11557;50.884;4.322;2024-01-25T12:32:20;34.15;;;10.02;;
22780;SDS011;11557;50.884;4.322;2024-01-25T12:34:55;32.78;;;9.52;;
22780;SDS011;11557;50.884;4.322;2024-01-25T12:37:28;25.80;;;8.52;;
22780;SDS011;11557;50.884;4.322;2024-01-25T12:39:54;31.55;;;9.15;;
22780;SDS011;11557;50.884;4.322;2024-01-25T12:42:20;29.90;;;9.07;;
22780;SDS011;11557;50.884;4.322;2024-01-25T12:44:47;30.00;;;8.65;;
22780;SDS011;11557;50.884;4.322;2024-01-25T12:47:13;36.90;;;9.35;;
22780;SDS011;11557;50.884;4.322;2024-01-25T12:49:42;29.35;;;9.75;;
22780;SDS011;11557;50.884;4.322;2024-01-25T12:52:09;33.92;;;10.57;;
22780;SDS011;11557;50.884;4.322;2024-01-25T12:54:35;31.10;;;12.43;;
22780;SDS011;11557;50.884;4.322;2024-01-25T12:57:01;33.20;;;12.25;;
22780;SDS011;11557;50.884;4.322;2024-01-25T12:59:27;27.17;;;14.27;;
22780;SDS011;11557;50.884;4.322;2024-01-25T13:01:53;29.05;;;14.95;;
22780;SDS011;11557;50.884;4.322;2024-01-25T13:04:19;27.27;;;14.63;;
22780;SDS011;11557;50.884;4.322;2024-01-25T13:06:46;27.65;;;15.55;;
22780;SDS011;11557;50.884;4.322;2024-01-25T13:09:12;26.63;;;15.27;;
22780;SDS011;11557;50.884;4.322;2024-01-25T13:11:37;25.25;;;14.68;;
22780;SDS011;11557;50.884;4.322;2024-01-25T13:14:03;27.63;;;14.70;;
22780;SDS011;11557;50.884;4.322;2024-01-25T13:16:29;26.13;;;13.60;;
22780;SDS011;11557;50.884;4.322;2024-01-25T13:18:55;28.67;;;14.10;;
22780;SDS011;11557;50.884;4.322;2024-01-25T13:21:20;20.58;;;12.00;;
22780;SDS011;11557;50.884;4.322;2024-01-25T13:23:46;23.75;;;12.20;;
22780;SDS011;11557;50.884;4.322;2024-01-25T13:26:11;22.83;;;10.77;;
22780;SDS011;11557;50.884;4.322;2024-01-25T13:28:37;17.08;;;10.75;;
22780;SDS011;11557;50.884;4.322;2024-01-25T13:31:03;19.55;;;10.52;;
22780;SDS011;11557;50.884;4.322;2024-01-25T13:33:29;19.95;;;10.77;;
22780;SDS011;11557;50.884;4.322;2024-01-25T13:35:55;18.83;;;9.90;;
22780;SDS011;11557;50.884;4.322;2024-01-25T13:38:21;23.27;;;10.52;;
22780;SDS011;11557;50.884;4.322;2024-01-25T13:40:46;17.08;;;10.38;;
22780;SDS011;11557;50.884;4.322;2024-01-25T13:43:12;20.45;;;9.30;;
22780;SDS011;11557;50.884;4.322;2024-01-25T13:45:38;21.65;;;10.40;;
22780;SDS011;11557;50.884;4.322;2024-01-25T13:48:04;15.77;;;10.15;;
22780;SDS011;11557;50.884;4.322;2024-01-25T13:50:33;24.02;;;10.32;;
22780;SDS011;11557;50.884;4.322;2024-01-25T13:52:58;19.40;;;10.95;;
22780;SDS011;11557;50.884;4.322;2024-01-25T13:55:24;21.13;;;11.60;;
22780;SDS011;11557;50.884;4.322;2024-01-25T13:57:50;20.10;;;12.02;;
22780;SDS011;11557;50.884;4.322;2024-01-25T14:00:16;22.10;;;12.13;;
22780;SDS011;11557;50.884;4.322;2024-01-25T14:02:42;26.17;;;13.75;;
22780;SDS011;11557;50.884;4.322;2024-01-25T14:05:10;19.55;;;12.70;;
22780;SDS011;11557;50.884;4.322;2024-01-25T14:07:36;22.42;;;14.32;;
22780;SDS011;11557;50.884;4.322;2024-01-25T14:10:01;18.92;;;13.75;;
22780;SDS011;11557;50.884;4.322;2024-01-25T14:12:27;24.08;;;13.38;;
22780;SDS011;11557;50.884;4.322;2024-01-25T14:14:53;24.55;;;13.13;;
22780;SDS011;11557;50.884;4.322;2024-01-25T14:17:19;21.70;;;13.40;;
22780;SDS011;11557;50.884;4.322;2024-01-25T14:19:44;18.58;;;13.63;;
22780;SDS011;11557;50.884;4.322;2024-01-25T14:22:10;22.27;;;13.63;;
22780;SDS011;11557;50.884;4.322;2024-01-25T14:24:36;20.75;;;13.18;;
22780;SDS011;11557;50.884;4.322;2024-01-25T14:27:01;28.60;;;13.43;;